Zim Luanda — 9HA2029 — position and weather

sailwx.info

Track history (hours):
 
Tides and Currents Weather Stations Pressure Air Temp Water Temp Dewpoint Dewpoint Depression Visibility Wind Speed Wind Dir Waves Ship Positions

Zim Luanda

Last reported at 2015-Feb-26 19:13 UTC. Time now 2015-Mar-01 00:34 UTC.
Position N 39°16' W 024°23'.

Length 260 m; draft 12 m.

Type: Ship (hazmat cat A). MMSI: 249830000.

Date/timePositionNaut miles runAvg speedWind from/ knotsBaromVisibWave heightAir tempDewpointWater temp
2015-Feb-26 19:13N 39°16' W 024°23'1116.8
2015-Feb-26 18:33N 39°19' W 024°37'2216.6
2015-Feb-26 17:12N 39°23' W 025°06'4416.6
2015-Feb-26 14:31N 39°29' W 026°02'1716.4
2015-Feb-26 13:28N 39°32' W 026°25'4916.5
2015-Feb-26 10:31N 39°38' W 027°27'1616.3
2015-Feb-26 09:33N 39°41' W 027°47'1616.3
2015-Feb-26 08:33N 39°43' W 028°09'1616.4
2015-Feb-26 07:33N 39°45' W 028°30'1616.4
2015-Feb-26 06:34N 39°47' W 028°51'1716.5
2015-Feb-26 05:33N 39°50' W 029°12'1616.4
2015-Feb-26 04:33N 39°52' W 029°33'1816.8
2015-Feb-26 03:30N 39°54' W 029°56'1616.7
2015-Feb-26 02:32N 39°56' W 030°17'1616.4
2015-Feb-26 01:33N 39°58' W 030°38'1616.2
2015-Feb-26 00:33N 40°00' W 030°59'1616.4
2015-Feb-25 23:33N 39°60' W 031°20'1616.3
2015-Feb-25 22:33N 39°60' W 031°41'1816.8
2015-Feb-25 21:30N 39°60' W 032°04'1616.5
2015-Feb-25 20:33N 39°59' W 032°25'3716.4
2015-Feb-25 18:19N 39°59' W 033°13'  
2015-Feb-19 16:17N 31°56' W 080°32'8 9.4
2015-Feb-19 15:26N 31°57' W 080°41'1112.6
2015-Feb-19 14:33N 32°02' W 080°53'9 8.9
2015-Feb-19 13:34N 32°05' W 081°03'5 5.3
2015-Feb-19 12:33N 32°08' W 081°08'1 0.9
2015-Feb-19 11:30N 32°08' W 081°09'0 0.0
2015-Feb-19 10:33N 32°08' W 081°09'0 0.0
2015-Feb-19 09:33N 32°08' W 081°09'0 0.0
2015-Feb-19 08:33N 32°08' W 081°09'0 0.0
2015-Feb-19 07:33N 32°08' W 081°09'0 0.0
2015-Feb-19 06:33N 32°08' W 081°09'0 0.0
2015-Feb-19 05:30N 32°08' W 081°09'0 0.0
2015-Feb-19 04:33N 32°08' W 081°09'0 0.0
2015-Feb-19 03:33N 32°08' W 081°09'0 0.0
2015-Feb-19 02:33N 32°08' W 081°09'0 0.0
2015-Feb-19 01:33N 32°08' W 081°09'0 0.0
2015-Feb-19 00:33N 32°08' W 081°09'0 0.0
2015-Feb-18 23:33N 32°08' W 081°09'0 0.0
2015-Feb-18 22:33N 32°08' W 081°09'0 0.0
2015-Feb-18 21:33N 32°08' W 081°09'0 0.0
2015-Feb-18 20:33N 32°08' W 081°09'0 0.0
2015-Feb-18 19:33N 32°08' W 081°09'0 0.0
2015-Feb-18 18:33N 32°08' W 081°09'0 0.0
2015-Feb-18 17:33N 32°08' W 081°09'0 0.0
2015-Feb-18 16:33N 32°08' W 081°09'0 0.0
2015-Feb-18 15:33N 32°08' W 081°09'0 0.0
2015-Feb-18 14:33N 32°08' W 081°09'0 0.0
2015-Feb-18 13:33N 32°08' W 081°09'2 1.8
2015-Feb-18 12:34N 32°07' W 081°08'5 5.4
2015-Feb-18 11:33N 32°05' W 081°01'1010.0
2015-Feb-18 10:34N 32°02' W 080°50'1212.3
2015-Feb-18 09:33N 31°57' W 080°37'5 5.2
2015-Feb-18 08:33N 31°58' W 080°31'6 5.2
2015-Feb-18 07:18N 31°58' W 080°23'2 2.2
2015-Feb-18 06:32N 31°58' W 080°21'  
Track history (hours):
 
Tides and Currents Weather Stations Pressure Air Temp Water Temp Dewpoint Dewpoint Depression Visibility Wind Speed Wind Dir Waves Ship Positions

Zim Luanda

Last reported at 2015-Feb-26 19:13 UTC. Time now 2015-Mar-01 00:34 UTC.
Position N 39°16' W 024°23'.

Length 260 m; draft 12 m.

Type: Ship (hazmat cat A). MMSI: 249830000.

Date/timePositionNaut miles runAvg speedWind from/ knotsBaromVisibWave heightAir tempDewpointWater temp
2015-Feb-26 19:13N 39°16' W 024°23'1116.8
2015-Feb-26 18:33N 39°19' W 024°37'2216.6
2015-Feb-26 17:12N 39°23' W 025°06'4416.6
2015-Feb-26 14:31N 39°29' W 026°02'1716.4
2015-Feb-26 13:28N 39°32' W 026°25'4916.5
2015-Feb-26 10:31N 39°38' W 027°27'1616.3
2015-Feb-26 09:33N 39°41' W 027°47'1616.3
2015-Feb-26 08:33N 39°43' W 028°09'1616.4
2015-Feb-26 07:33N 39°45' W 028°30'1616.4
2015-Feb-26 06:34N 39°47' W 028°51'1716.5
2015-Feb-26 05:33N 39°50' W 029°12'1616.4
2015-Feb-26 04:33N 39°52' W 029°33'1816.8
2015-Feb-26 03:30N 39°54' W 029°56'1616.7
2015-Feb-26 02:32N 39°56' W 030°17'1616.4
2015-Feb-26 01:33N 39°58' W 030°38'1616.2
2015-Feb-26 00:33N 40°00' W 030°59'1616.4
2015-Feb-25 23:33N 39°60' W 031°20'1616.3
2015-Feb-25 22:33N 39°60' W 031°41'1816.8
2015-Feb-25 21:30N 39°60' W 032°04'1616.5
2015-Feb-25 20:33N 39°59' W 032°25'3716.4
2015-Feb-25 18:19N 39°59' W 033°13'  
2015-Feb-19 16:17N 31°56' W 080°32'8 9.4
2015-Feb-19 15:26N 31°57' W 080°41'1112.6
2015-Feb-19 14:33N 32°02' W 080°53'9 8.9
2015-Feb-19 13:34N 32°05' W 081°03'5 5.3
2015-Feb-19 12:33N 32°08' W 081°08'1 0.9
2015-Feb-19 11:30N 32°08' W 081°09'0 0.0
2015-Feb-19 10:33N 32°08' W 081°09'0 0.0
2015-Feb-19 09:33N 32°08' W 081°09'0 0.0
2015-Feb-19 08:33N 32°08' W 081°09'0 0.0
2015-Feb-19 07:33N 32°08' W 081°09'0 0.0
2015-Feb-19 06:33N 32°08' W 081°09'0 0.0
2015-Feb-19 05:30N 32°08' W 081°09'0 0.0
2015-Feb-19 04:33N 32°08' W 081°09'0 0.0
2015-Feb-19 03:33N 32°08' W 081°09'0 0.0
2015-Feb-19 02:33N 32°08' W 081°09'0 0.0
2015-Feb-19 01:33N 32°08' W 081°09'0 0.0
2015-Feb-19 00:33N 32°08' W 081°09'0 0.0
2015-Feb-18 23:33N 32°08' W 081°09'0 0.0
2015-Feb-18 22:33N 32°08' W 081°09'0 0.0
2015-Feb-18 21:33N 32°08' W 081°09'0 0.0
2015-Feb-18 20:33N 32°08' W 081°09'0 0.0
2015-Feb-18 19:33N 32°08' W 081°09'0 0.0
2015-Feb-18 18:33N 32°08' W 081°09'0 0.0
2015-Feb-18 17:33N 32°08' W 081°09'0 0.0
2015-Feb-18 16:33N 32°08' W 081°09'0 0.0
2015-Feb-18 15:33N 32°08' W 081°09'0 0.0
2015-Feb-18 14:33N 32°08' W 081°09'0 0.0
2015-Feb-18 13:33N 32°08' W 081°09'2 1.8
2015-Feb-18 12:34N 32°07' W 081°08'5 5.4
2015-Feb-18 11:33N 32°05' W 081°01'1010.0
2015-Feb-18 10:34N 32°02' W 080°50'1212.3
2015-Feb-18 09:33N 31°57' W 080°37'5 5.2
2015-Feb-18 08:33N 31°58' W 080°31'6 5.2
2015-Feb-18 07:18N 31°58' W 080°23'2 2.2
2015-Feb-18 06:32N 31°58' W 080°21'  

Dump ship's entire track history